Terminal Aerodrome Forecast
Issued by NWS

Home | Current Version | Previous Version | Text Only | Print | Product List | Glossary Off
Versions: 1 2 3 4 5 6 7 8 9 10 11 12

000
FTUS45 KGGW 222300
TAFSDY
TAF
KSDY 222320Z 2300/2324 14014KT P6SM BKN080
     FM230300 14009KT P6SM BKN080
     FM230900 VRB04KT P6SM BKN080
     FM231500 10008KT P6SM BKN070
     FM231800 10012KT P6SM BKN060
      AMD LTD TO CLD VIS AND WIND=

USA.gov is the U.S. government's official web portal to all federal, state and local government web resources and services.